Aviation Digital Data Service (ADDS)

Output produced by METARs form (1022 UTC 27 September 2016)
found at http://aviationweather.gov/adds/metars/
 
KART 270903Z 2709/2806 23007KT P6SM BKN080 
     FM271000 21005KT P6SM VCSH BKN050 
     FM271200 20005KT P6SM VCSH BKN050 
     FM271500 22010KT P6SM VCSH BKN050 
     FM272000 23007KT P6SM SCT250 
     FM272300 VRB04KT P6SM SCT250